createdAt,value
2023-02-20T00:00:38.456Z,7.65
2023-02-20T00:03:06.494Z,7.78
2023-02-20T00:05:33.506Z,8.00
2023-02-20T00:08:00.344Z,7.78
2023-02-20T00:10:27.535Z,7.47
2023-02-20T00:12:54.768Z,8.05
2023-02-20T00:15:22.860Z,7.80
2023-02-20T00:17:50.097Z,8.38
2023-02-20T00:20:21.131Z,8.32
2023-02-20T00:22:48.882Z,7.45
2023-02-20T00:25:21.124Z,8.20
2023-02-20T00:27:48.533Z,7.63
2023-02-20T00:30:24.008Z,6.82
2023-02-20T00:32:54.006Z,7.22
2023-02-20T00:35:21.797Z,6.72
2023-02-20T00:37:49.144Z,6.57
2023-02-20T00:40:18.361Z,6.20
2023-02-20T00:42:45.295Z,6.15
2023-02-20T00:45:14.131Z,6.28
2023-02-20T00:47:40.897Z,6.07
2023-02-20T00:50:08.945Z,6.10
2023-02-20T00:52:36.316Z,5.72
2023-02-20T00:55:03.948Z,5.45
2023-02-20T00:57:30.692Z,5.47
2023-02-20T00:59:57.470Z,5.40
2023-02-20T01:02:24.554Z,5.10
2023-02-20T01:04:51.477Z,5.80
2023-02-20T01:07:18.398Z,6.15
2023-02-20T01:09:45.166Z,5.32
2023-02-20T01:12:11.905Z,5.68
2023-02-20T01:14:38.883Z,6.32
2023-02-20T01:17:05.718Z,6.43
2023-02-20T01:19:32.692Z,5.72
2023-02-20T01:22:00.328Z,6.10
2023-02-20T01:24:27.095Z,6.03
2023-02-20T01:26:53.858Z,6.28
2023-02-20T01:29:20.635Z,5.95
2023-02-20T01:31:52.319Z,6.28
2023-02-20T01:34:20.612Z,5.47
2023-02-20T01:36:53.950Z,5.50
2023-02-20T01:39:30.902Z,4.13
2023-02-20T01:42:03.918Z,6.18
2023-02-20T01:44:35.109Z,5.82
2023-02-20T01:47:07.911Z,5.68
2023-02-20T01:49:44.868Z,5.00
2023-02-20T01:52:26.658Z,5.68
2023-02-20T01:55:08.011Z,5.43
2023-02-20T01:57:38.319Z,5.30
2023-02-20T02:00:10.191Z,5.10
2023-02-20T02:02:42.411Z,5.10
2023-02-20T02:05:11.512Z,5.00
2023-02-20T02:07:39.444Z,4.65
2023-02-20T02:10:14.758Z,4.75
2023-02-20T02:12:46.000Z,5.38
2023-02-20T02:15:19.782Z,4.63
2023-02-20T02:18:16.310Z,5.05
2023-02-20T02:21:09.017Z,5.10
2023-02-20T02:24:18.447Z,4.80
2023-02-20T02:27:31.833Z,5.00
2023-02-20T02:30:16.787Z,4.30
2023-02-20T02:33:01.800Z,4.38
2023-02-20T02:35:49.759Z,4.47
2023-02-20T02:38:46.214Z,4.30
2023-02-20T02:41:47.518Z,4.47
2023-02-20T02:44:49.452Z,4.90
2023-02-20T02:47:47.308Z,4.20
2023-02-20T02:50:38.910Z,4.22
2023-02-20T02:53:08.440Z,5.50
2023-02-20T02:55:35.671Z,5.38
2023-02-20T02:58:04.794Z,5.68
2023-02-20T03:00:46.347Z,5.70
2023-02-20T03:03:21.282Z,6.35
2023-02-20T03:06:11.712Z,6.10
2023-02-20T03:08:46.822Z,6.60
2023-02-20T03:11:20.773Z,7.00
2023-02-20T03:14:31.747Z,6.90
2023-02-20T03:17:28.113Z,7.05
2023-02-20T03:19:59.938Z,6.75
2023-02-20T03:22:39.931Z,7.43
2023-02-20T03:25:28.948Z,7.60
2023-02-20T03:28:02.206Z,7.35
2023-02-20T03:30:46.784Z,5.20
2023-02-20T03:36:26.281Z,6.97
2023-02-20T03:39:22.545Z,6.68
2023-02-20T03:42:08.668Z,6.32
2023-02-20T03:44:36.973Z,7.13
2023-02-20T03:47:07.838Z,7.25
2023-02-20T03:49:40.550Z,8.25
2023-02-20T03:52:07.814Z,7.28
2023-02-20T03:54:36.264Z,7.35
2023-02-20T03:57:30.827Z,7.45
2023-02-20T04:00:06.463Z,7.75
2023-02-20T04:02:40.058Z,8.13
2023-02-20T04:05:21.877Z,8.18
2023-02-20T04:08:06.091Z,8.13
2023-02-20T04:10:45.060Z,9.00
2023-02-20T04:13:15.338Z,8.73
2023-02-20T04:15:43.257Z,8.82
2023-02-20T04:18:13.637Z,9.73
2023-02-20T04:20:40.787Z,9.15
2023-02-20T04:23:15.906Z,9.38
2023-02-20T04:25:51.138Z,9.82
2023-02-20T04:28:18.383Z,10.80
2023-02-20T04:30:45.294Z,10.13
2023-02-20T04:33:14.926Z,10.85
2023-02-20T04:35:41.875Z,10.40
2023-02-20T04:38:10.037Z,9.75
2023-02-20T04:40:37.542Z,11.02
2023-02-20T04:43:04.628Z,10.85
2023-02-20T04:45:31.478Z,11.20
2023-02-20T04:47:58.265Z,11.18
2023-02-20T04:50:30.818Z,11.82
2023-02-20T04:52:58.288Z,11.55
2023-02-20T04:55:25.834Z,12.90
2023-02-20T04:57:53.692Z,12.23
2023-02-20T05:00:22.016Z,12.27
2023-02-20T05:02:49.164Z,12.68
2023-02-20T05:05:26.217Z,12.30
2023-02-20T05:08:02.313Z,11.45
2023-02-20T05:10:30.815Z,10.93
2023-02-20T05:12:58.506Z,11.20
2023-02-20T05:15:27.132Z,12.40
2023-02-20T05:17:53.919Z,10.93
2023-02-20T05:20:20.967Z,11.30
2023-02-20T05:22:48.510Z,11.15
2023-02-20T05:25:15.679Z,11.57
2023-02-20T05:27:42.692Z,12.40
2023-02-20T05:30:10.936Z,12.18
2023-02-20T05:32:38.006Z,12.15
2023-02-20T05:35:04.946Z,10.57
2023-02-20T05:37:33.484Z,10.55
2023-02-20T05:40:00.586Z,11.15
2023-02-20T05:42:27.492Z,10.52
2023-02-20T05:44:54.273Z,11.25
2023-02-20T05:47:21.061Z,11.77
2023-02-20T05:49:48.142Z,10.55
2023-02-20T05:52:14.937Z,11.40
2023-02-20T05:54:42.263Z,10.85
2023-02-20T05:57:12.851Z,11.82
2023-02-20T05:59:42.089Z,10.02
2023-02-20T06:02:08.938Z,9.95
2023-02-20T06:04:35.762Z,8.65
2023-02-20T06:07:02.555Z,9.57
2023-02-20T06:09:29.330Z,9.02
2023-02-20T06:11:57.188Z,8.40
2023-02-20T06:14:27.838Z,8.98
2023-02-20T06:16:56.866Z,8.25
2023-02-20T06:19:25.492Z,8.73
2023-02-20T06:21:53.933Z,9.18
2023-02-20T06:24:21.698Z,8.55
2023-02-20T06:26:48.915Z,7.22
2023-02-20T06:29:17.250Z,7.68
2023-02-20T06:31:44.354Z,7.20
2023-02-20T06:34:11.516Z,7.35
2023-02-20T06:36:41.033Z,8.02
2023-02-20T06:39:11.010Z,7.35
2023-02-20T06:41:37.909Z,6.85
2023-02-20T06:44:05.616Z,6.85
2023-02-20T06:46:32.448Z,6.63
2023-02-20T06:48:59.882Z,6.78
2023-02-20T06:51:31.911Z,7.10
2023-02-20T06:53:59.763Z,6.07
2023-02-20T06:56:30.217Z,7.00
2023-02-20T06:58:58.154Z,6.03
2023-02-20T07:01:28.277Z,7.05
2023-02-20T07:03:57.147Z,6.53
2023-02-20T07:06:25.824Z,6.30
2023-02-20T07:08:52.870Z,6.05
2023-02-20T07:11:22.077Z,6.20
2023-02-20T07:13:49.136Z,6.00
2023-02-20T07:16:16.508Z,6.18
2023-02-20T07:18:43.617Z,6.82
2023-02-20T07:21:10.473Z,7.18
2023-02-20T07:23:37.256Z,6.32
2023-02-20T07:26:04.300Z,7.03
2023-02-20T07:28:31.097Z,6.32
2023-02-20T07:30:57.875Z,7.72
2023-02-20T07:33:24.675Z,7.45
2023-02-20T07:35:51.496Z,8.13
2023-02-20T07:38:18.266Z,8.57
2023-02-20T07:40:45.053Z,7.70
2023-02-20T07:43:11.889Z,7.65
2023-02-20T07:45:39.597Z,7.97
2023-02-20T07:48:06.624Z,7.97
2023-02-20T07:50:34.568Z,8.13
2023-02-20T07:53:01.451Z,8.23
2023-02-20T07:55:28.488Z,8.40
2023-02-20T07:57:58.034Z,8.43
2023-02-20T08:00:26.749Z,8.50
2023-02-20T08:02:53.584Z,8.48
2023-02-20T08:05:20.584Z,9.52
2023-02-20T08:07:49.297Z,9.60
2023-02-20T08:10:19.484Z,9.43
2023-02-20T08:12:47.649Z,9.70
2023-02-20T08:15:15.163Z,10.30
2023-02-20T08:17:46.830Z,9.95
2023-02-20T08:20:16.562Z,9.57
2023-02-20T08:22:48.866Z,10.82
2023-02-20T08:25:17.367Z,11.00
2023-02-20T08:27:47.639Z,10.93
2023-02-20T08:30:23.868Z,11.00
2023-02-20T08:32:55.107Z,12.02
2023-02-20T08:35:24.932Z,11.77
2023-02-20T08:37:52.006Z,12.25
2023-02-20T08:40:18.925Z,12.20
2023-02-20T08:42:45.729Z,12.48
2023-02-20T08:45:14.765Z,13.32
2023-02-20T08:47:41.596Z,12.82
2023-02-20T08:50:08.478Z,14.27
2023-02-20T08:52:35.239Z,13.13
2023-02-20T08:55:02.086Z,14.20
2023-02-20T08:57:28.882Z,13.68
2023-02-20T08:59:55.690Z,13.18
2023-02-20T09:02:26.038Z,14.02
2023-02-20T09:04:53.384Z,15.68
2023-02-20T09:07:20.382Z,14.60
2023-02-20T09:09:47.405Z,15.75
2023-02-20T09:12:14.713Z,16.10
2023-02-20T09:14:41.516Z,16.25
2023-02-20T09:17:09.416Z,16.00
2023-02-20T09:19:36.326Z,16.17
2023-02-20T09:22:03.453Z,16.58
2023-02-20T09:24:34.050Z,16.98
2023-02-20T09:27:01.898Z,15.77
2023-02-20T09:29:28.783Z,17.40
2023-02-20T09:31:56.096Z,16.40
2023-02-20T09:34:23.440Z,17.02
2023-02-20T09:36:50.257Z,16.73
2023-02-20T09:39:17.830Z,17.20
2023-02-20T09:42:06.610Z,15.95
2023-02-20T09:44:58.369Z,16.35
2023-02-20T09:47:49.368Z,16.08
2023-02-20T09:50:30.364Z,16.05
2023-02-20T09:53:11.236Z,15.82
2023-02-20T09:55:41.352Z,15.23
2023-02-20T09:58:22.205Z,16.02
2023-02-20T10:00:50.155Z,14.82
2023-02-20T10:03:37.489Z,15.48
2023-02-20T10:06:16.637Z,14.43
2023-02-20T10:08:43.701Z,15.95
2023-02-20T10:11:28.545Z,14.40
2023-02-20T10:14:34.721Z,14.27
2023-02-20T10:17:46.943Z,14.85
2023-02-20T10:20:38.007Z,16.05
2023-02-20T10:23:24.130Z,14.80
2023-02-20T10:25:57.421Z,14.95
2023-02-20T10:28:24.780Z,15.82
2023-02-20T10:30:54.583Z,16.58
2023-02-20T10:33:44.642Z,15.57
2023-02-20T10:36:37.458Z,15.38
2023-02-20T10:39:15.359Z,16.45
2023-02-20T10:41:55.213Z,15.60
2023-02-20T10:44:25.246Z,16.75
2023-02-20T10:47:02.294Z,15.35
2023-02-20T10:50:07.108Z,16.15
2023-02-20T10:52:45.950Z,15.73
2023-02-20T10:56:03.884Z,16.30
2023-02-20T10:58:56.312Z,16.38
2023-02-20T11:01:26.206Z,16.30
2023-02-20T11:04:18.036Z,16.77
2023-02-20T11:06:50.757Z,17.15
2023-02-20T11:09:17.590Z,18.55
2023-02-20T11:11:46.792Z,16.80
2023-02-20T11:14:27.829Z,17.38
2023-02-20T11:17:06.487Z,16.98
2023-02-20T11:19:57.189Z,16.10
2023-02-20T11:22:47.674Z,16.13
2023-02-20T11:25:16.880Z,16.98
2023-02-20T11:27:48.137Z,18.15
2023-02-20T11:30:41.899Z,17.35
2023-02-20T11:33:17.909Z,17.88
2023-02-20T11:36:19.234Z,16.73
2023-02-20T11:38:49.145Z,16.73
2023-02-20T11:41:31.244Z,17.88
2023-02-20T11:44:21.325Z,17.58
2023-02-20T11:47:09.682Z,17.48
2023-02-20T11:49:36.643Z,16.55
2023-02-20T11:52:22.715Z,18.70
2023-02-20T11:55:21.175Z,18.52
2023-02-20T11:57:48.889Z,17.33
2023-02-20T12:00:26.548Z,18.77
2023-02-20T12:03:14.176Z,18.75
2023-02-20T12:05:44.031Z,19.10
2023-02-20T12:08:34.313Z,18.45
2023-02-20T12:11:27.471Z,18.58
2023-02-20T12:13:58.463Z,19.25
2023-02-20T12:16:58.978Z,20.45
2023-02-20T12:20:08.015Z,19.08
2023-02-20T12:22:38.309Z,18.63
2023-02-20T12:25:51.971Z,18.42
2023-02-20T12:28:49.812Z,20.02
2023-02-20T12:31:44.789Z,20.42
2023-02-20T12:35:21.430Z,19.40
2023-02-20T12:38:27.323Z,19.20
2023-02-20T12:41:24.127Z,19.42
2023-02-20T12:44:33.855Z,19.75
2023-02-20T12:47:40.429Z,20.55
2023-02-20T12:50:42.400Z,18.80
2023-02-20T12:53:21.014Z,19.13
2023-02-20T12:56:02.567Z,19.25
2023-02-20T12:58:46.019Z,20.85
2023-02-20T13:01:16.099Z,18.38
2023-02-20T13:04:25.825Z,19.75
2023-02-20T13:07:15.730Z,18.30
2023-02-20T13:10:22.770Z,18.20
2023-02-20T13:12:51.853Z,17.67
2023-02-20T13:15:55.030Z,17.30
2023-02-20T13:18:32.380Z,17.90
2023-02-20T13:21:10.621Z,17.65
2023-02-20T13:23:41.575Z,18.60
2023-02-20T13:26:27.125Z,19.25
2023-02-20T13:28:54.570Z,18.90
2023-02-20T13:31:48.758Z,18.38
2023-02-20T13:34:15.491Z,16.83
2023-02-20T13:36:45.016Z,18.27
2023-02-20T13:39:37.781Z,17.13
2023-02-20T13:42:27.104Z,16.55
2023-02-20T13:44:53.949Z,17.00
2023-02-20T13:47:36.193Z,16.65
2023-02-20T13:50:04.137Z,18.35
2023-02-20T13:52:42.700Z,16.98
2023-02-20T13:55:15.145Z,17.17
2023-02-20T13:57:48.560Z,17.80
2023-02-20T14:00:39.873Z,16.73
2023-02-20T14:03:28.921Z,16.25
2023-02-20T14:06:02.928Z,15.60
2023-02-20T14:08:30.001Z,15.98
2023-02-20T14:11:08.696Z,15.38
2023-02-20T14:13:41.163Z,16.42
2023-02-20T14:16:35.679Z,15.75
2023-02-20T14:19:26.334Z,15.70
2023-02-20T14:21:53.352Z,13.57
2023-02-20T14:24:29.187Z,14.48
2023-02-20T14:26:56.885Z,15.45
2023-02-20T14:29:33.680Z,14.88
2023-02-20T14:32:03.151Z,14.32
2023-02-20T14:35:03.123Z,14.25
2023-02-20T14:38:14.823Z,13.98
2023-02-20T14:40:43.975Z,13.27
2023-02-20T14:43:23.209Z,13.70
2023-02-20T14:46:04.719Z,13.65
2023-02-20T14:48:34.521Z,14.20
2023-02-20T14:51:24.448Z,11.95
2023-02-20T14:54:02.197Z,13.55
2023-02-20T14:56:33.768Z,13.65
2023-02-20T14:59:23.337Z,12.45
2023-02-20T15:01:51.548Z,12.63
2023-02-20T15:04:19.278Z,13.48
2023-02-20T15:06:49.645Z,11.82
2023-02-20T15:09:23.371Z,11.77
2023-02-20T15:14:35.897Z,10.43
2023-02-20T15:17:15.049Z,10.57
2023-02-20T15:19:43.065Z,11.15
2023-02-20T15:22:24.642Z,10.95
2023-02-20T15:24:51.547Z,10.73
2023-02-20T15:27:27.256Z,11.30
2023-02-20T15:30:17.285Z,11.57
2023-02-20T15:32:52.456Z,11.00
2023-02-20T15:35:33.783Z,12.05
2023-02-20T15:38:02.863Z,11.15
2023-02-20T15:40:33.700Z,12.20
2023-02-20T15:43:23.839Z,11.60
2023-02-20T15:45:49.172Z,11.68
2023-02-20T15:48:16.692Z,11.48
2023-02-20T15:50:44.534Z,12.05
2023-02-20T15:53:18.581Z,11.70
2023-02-20T15:55:45.830Z,12.43
2023-02-20T15:58:34.897Z,11.93
2023-02-20T16:01:02.387Z,10.73
2023-02-20T16:03:33.873Z,10.93
2023-02-20T16:06:06.260Z,10.90
2023-02-20T16:08:33.139Z,10.48
2023-02-20T16:10:59.947Z,10.15
2023-02-20T16:13:39.147Z,11.25
2023-02-20T16:16:24.347Z,11.90
2023-02-20T16:18:56.040Z,10.20
2023-02-20T16:21:24.687Z,10.75
2023-02-20T16:23:52.433Z,9.85
2023-02-20T16:26:24.238Z,11.30
2023-02-20T16:29:06.411Z,10.70
2023-02-20T16:32:00.774Z,11.30
2023-02-20T16:34:35.591Z,11.55
2023-02-20T16:37:03.296Z,10.55
2023-02-20T16:39:30.282Z,11.05
2023-02-20T16:41:59.156Z,10.77
2023-02-20T16:44:43.637Z,11.18
2023-02-20T16:47:13.625Z,10.45
2023-02-20T16:49:50.570Z,11.55
2023-02-20T16:52:39.805Z,10.05
2023-02-20T16:55:27.986Z,10.45
2023-02-20T16:57:57.500Z,10.63
2023-02-20T17:00:31.881Z,10.45
2023-02-20T17:03:11.026Z,11.27
2023-02-20T17:05:40.361Z,10.15
2023-02-20T17:08:12.531Z,10.40
2023-02-20T17:11:04.143Z,10.23
2023-02-20T17:13:34.457Z,10.48
2023-02-20T17:16:25.675Z,8.80
2023-02-20T17:18:59.792Z,8.98
2023-02-20T17:21:26.622Z,8.82
2023-02-20T17:23:53.455Z,9.77
2023-02-20T17:26:20.293Z,9.10
2023-02-20T17:28:47.366Z,9.93
2023-02-20T17:31:14.530Z,9.50
2023-02-20T17:33:43.046Z,9.52
2023-02-20T17:36:11.266Z,9.43
2023-02-20T17:38:42.961Z,8.40
2023-02-20T17:41:10.537Z,9.15
2023-02-20T17:43:39.177Z,8.52
2023-02-20T17:46:06.948Z,9.15
2023-02-20T17:48:35.672Z,9.20
2023-02-20T17:51:03.701Z,8.70
2023-02-20T17:53:30.455Z,8.45
2023-02-20T17:56:00.395Z,8.63
2023-02-20T17:58:27.925Z,8.65
2023-02-20T18:00:56.392Z,8.27
2023-02-20T18:03:26.250Z,8.45
2023-02-20T18:05:55.142Z,8.50
2023-02-20T18:08:21.958Z,8.75
2023-02-20T18:10:48.823Z,8.60
2023-02-20T18:13:15.684Z,9.05
2023-02-20T18:15:43.262Z,7.80
2023-02-20T18:18:14.431Z,8.50
2023-02-20T18:20:41.539Z,8.73
2023-02-20T18:23:09.566Z,8.65
2023-02-20T18:25:41.138Z,8.45
2023-02-20T18:28:09.496Z,8.88
2023-02-20T18:30:36.456Z,8.50
2023-02-20T18:33:04.893Z,8.75
2023-02-20T18:35:32.364Z,9.07
2023-02-20T18:38:00.980Z,8.90
2023-02-20T18:40:29.496Z,8.77
2023-02-20T18:43:00.580Z,9.40
2023-02-20T18:45:31.742Z,9.65
2023-02-20T18:47:58.569Z,8.60
2023-02-20T18:50:25.721Z,8.80
2023-02-20T18:52:52.545Z,9.77
2023-02-20T18:55:20.152Z,9.55
2023-02-20T18:57:48.929Z,9.55
2023-02-20T19:00:21.460Z,9.45
2023-02-20T19:02:51.315Z,10.23
2023-02-20T19:05:18.172Z,9.65
2023-02-20T19:07:46.856Z,10.15
2023-02-20T19:10:26.479Z,9.45
2023-02-20T19:12:54.464Z,9.88
2023-02-20T19:15:23.181Z,11.07
2023-02-20T19:17:50.000Z,10.60
2023-02-20T19:20:27.456Z,10.27
2023-02-20T19:22:55.672Z,9.68
2023-02-20T19:25:23.038Z,11.75
2023-02-20T19:27:49.889Z,11.02
2023-02-20T19:30:22.816Z,11.68
2023-02-20T19:32:50.104Z,10.85
2023-02-20T19:35:19.839Z,11.05
2023-02-20T19:37:46.657Z,11.85
2023-02-20T19:40:13.449Z,11.45
2023-02-20T19:42:41.038Z,11.98
2023-02-20T19:45:08.264Z,13.43
2023-02-20T19:47:35.420Z,13.52
2023-02-20T19:50:02.532Z,13.30
2023-02-20T19:52:29.316Z,14.57
2023-02-20T19:54:56.094Z,13.82
2023-02-20T19:57:22.904Z,15.27
2023-02-20T19:59:50.982Z,14.80
2023-02-20T20:02:17.814Z,16.02
2023-02-20T20:04:45.324Z,16.38
2023-02-20T20:07:12.788Z,15.80
2023-02-20T20:09:44.661Z,15.65
2023-02-20T20:12:29.937Z,15.35
2023-02-20T20:14:56.796Z,16.73
2023-02-20T20:17:25.365Z,15.90
2023-02-20T20:19:58.738Z,16.63
2023-02-20T20:22:29.388Z,16.27
2023-02-20T20:24:56.478Z,16.92
2023-02-20T20:27:23.553Z,17.13
2023-02-20T20:29:51.612Z,17.33
2023-02-20T20:32:21.282Z,18.05
2023-02-20T20:34:52.877Z,17.58
2023-02-20T20:37:27.398Z,18.25
2023-02-20T20:39:59.188Z,17.63
2023-02-20T20:42:27.649Z,17.92
2023-02-20T20:44:58.158Z,17.35
2023-02-20T20:47:27.969Z,18.73
2023-02-20T20:49:55.187Z,18.55
2023-02-20T20:52:26.484Z,18.30
2023-02-20T20:54:55.761Z,18.13
2023-02-20T20:57:26.381Z,18.35
2023-02-20T20:59:55.754Z,18.00
2023-02-20T21:02:23.629Z,17.63
2023-02-20T21:04:52.916Z,18.50
2023-02-20T21:07:20.554Z,18.27
2023-02-20T21:09:47.417Z,18.90
2023-02-20T21:12:15.657Z,19.63
2023-02-20T21:14:43.473Z,19.80
2023-02-20T21:17:12.457Z,18.88
2023-02-20T21:19:40.881Z,20.15
2023-02-20T21:22:07.699Z,20.02
2023-02-20T21:24:38.082Z,20.23
2023-02-20T21:27:05.621Z,20.80
2023-02-20T21:29:34.610Z,19.70
2023-02-20T21:32:01.807Z,20.10
2023-02-20T21:34:28.649Z,19.35
2023-02-20T21:36:55.673Z,20.42
2023-02-20T21:39:25.464Z,20.63
2023-02-20T21:42:11.666Z,20.95
2023-02-20T21:44:42.684Z,23.02
2023-02-20T21:47:10.597Z,21.88
2023-02-20T21:49:46.547Z,21.83
2023-02-20T21:52:15.380Z,23.33
2023-02-20T21:54:47.122Z,23.50
2023-02-20T21:57:14.777Z,23.20
2023-02-20T21:59:41.504Z,23.80
2023-02-20T22:02:20.198Z,23.77
2023-02-20T22:04:47.036Z,24.48
2023-02-20T22:07:33.816Z,24.55
2023-02-20T22:10:18.906Z,24.77
2023-02-20T22:13:04.084Z,24.63
2023-02-20T22:15:49.431Z,25.25
2023-02-20T22:18:34.681Z,24.92
2023-02-20T22:21:20.178Z,26.02
2023-02-20T22:24:05.229Z,25.58
2023-02-20T22:26:50.456Z,26.33
2023-02-20T22:29:35.536Z,26.48
2023-02-20T22:32:20.883Z,27.05
2023-02-20T22:35:11.906Z,26.48
2023-02-20T22:37:58.219Z,24.33
2023-02-20T22:40:43.374Z,25.75
2023-02-20T22:43:28.624Z,25.00
2023-02-20T22:46:13.649Z,26.73
2023-02-20T22:48:58.937Z,25.70
2023-02-20T22:51:44.199Z,27.65
2023-02-20T22:54:30.007Z,28.23
2023-02-20T22:57:16.089Z,26.95
2023-02-20T23:00:03.572Z,28.65
2023-02-20T23:02:49.240Z,28.48
2023-02-20T23:05:34.586Z,28.55
2023-02-20T23:08:20.257Z,28.08
2023-02-20T23:11:05.666Z,29.17
2023-02-20T23:13:50.861Z,29.65
2023-02-20T23:16:42.188Z,29.02
2023-02-20T23:19:29.114Z,28.75
2023-02-20T23:22:15.560Z,28.20
2023-02-20T23:25:00.788Z,27.33
2023-02-20T23:27:46.610Z,29.65
2023-02-20T23:30:32.269Z,29.48
2023-02-20T23:33:17.365Z,28.63
2023-02-20T23:36:03.214Z,28.90
2023-02-20T23:38:48.231Z,27.20
2023-02-20T23:41:33.687Z,27.33
2023-02-20T23:44:18.863Z,27.30
2023-02-20T23:47:06.135Z,29.67
2023-02-20T23:49:52.048Z,26.38
2023-02-20T23:52:37.168Z,28.88
2023-02-20T23:55:23.029Z,28.55
2023-02-20T23:58:08.301Z,27.55
